Terminal Aerodrome Forecast
Issued by NWS Albuquerque, NM

Home | Current Version | Previous Version | Text Only | Print | Product List | Glossary On
Versions: 1 2 3 4 5 6 7 8 9 10 11 12 13 14 15 16 17 18 19 20
000
FTUS45 KABQ 291100
TAFABQ
TAF
KABQ 291126Z 2912/3012 VRB06KT P6SM SCT070 BKN100
     FM292100 23010KT P6SM VCTS SCT060CB BKN110
     FM292300 28010KT P6SM SCT060 SCT130
     FM300100 15008KT P6SM SCT150
     FM300400 VRB05KT P6SM SCT150=

USA.gov is the U.S. government's official web portal to all federal, state and local government web resources and services.